Aérodrome :
LOGIN :

S'inscrire | Disclaimer

   EN    FR    IT 

 










Légende :    VFR   VFR Marginal   IFR   IFR Intensif   IFR Très Intensif
Visi : 
Plafond : 
>= 8 km
>= 3000ft
5 à 8 km
1000 à 3000 ft
1500m à 5 km
500 à 1000 ft
800 à 1500m
200 à 500 ft
< 800m
< 200 ft
Symboles :   Orages  Brouillard  Fortes neiges  Fortes précipitations  Vent > 20 kt
SIGMETs :   Divers  Orages  Givrage  Turbulence  Onde Orograph.  Cendres Volcan.






- Altitude de l'aérodrome : 184 ft
- Code IATA : BRU


EBBR - Bruxelles

DERNIER METAR :
  • 301020Z 29017KT 9999 FEW030 08/02 Q1021 NOSIG

METARs EXPIRÉS :
  • 300950Z 28016KT 9999 FEW020 07/03 Q1021 NOSIG
  • 300920Z 28013KT CAVOK 07/03 Q1020 NOSIG
  • 300850Z 28015KT 9999 FEW023 07/03 Q1020 NOSIG
  • 300820Z 28012KT 9999 SCT023 07/05 Q1020 NOSIG
  • 300750Z 27011KT 9999 VCSH SCT020 BKN048 07/05 Q1020 NOSIG

TAF TAF EBBR
Valide du 30 à 06h jusqu'au 31 à 12h UTC


300500Z 3006/3112 27012KT 9999 SCT012 SCT035
PROB40
TEMPO 3006/3007 3500 -DZRA BKN006
BECMG 3008/3010 29015G25KT
BECMG 3013/3015 30010KT
BECMG 3022/3024 23006KT



MET'MAP, la Météo Aéronautique d'un coup d'oeil ! - Copyright ORBIFLY Décembre 2007 - Disclaimer

ORBIFLY MET'MAP TEAM :

Programmation & Développement : Alexandra Zaïnal
Sur une idée originale de : Baudouin d'Aumeries
Soutien technique & logistique : Manuel Goepfert
Assistance : Marc-Olivier Méhu




SOURCES & CREDITS :

   NOAA